sensor_id;sensor_type;location;lat;lon;timestamp;temperature;humidity
70300;HTU21D;57704;51.112;5.878;2023-08-20T00:00:38;22.54;73.75
70300;HTU21D;57704;51.112;5.878;2023-08-20T00:03:10;22.52;73.72
70300;HTU21D;57704;51.112;5.878;2023-08-20T00:05:38;22.47;73.79
70300;HTU21D;57704;51.112;5.878;2023-08-20T00:08:04;22.46;73.77
70300;HTU21D;57704;51.112;5.878;2023-08-20T00:10:31;22.40;73.81
70300;HTU21D;57704;51.112;5.878;2023-08-20T00:12:57;22.39;73.81
70300;HTU21D;57704;51.112;5.878;2023-08-20T00:15:23;22.38;73.80
70300;HTU21D;57704;51.112;5.878;2023-08-20T00:17:53;22.36;73.75
70300;HTU21D;57704;51.112;5.878;2023-08-20T00:20:19;22.31;73.82
70300;HTU21D;57704;51.112;5.878;2023-08-20T00:22:46;22.31;73.89
70300;HTU21D;57704;51.112;5.878;2023-08-20T00:25:13;22.26;73.95
70300;HTU21D;57704;51.112;5.878;2023-08-20T00:27:40;22.26;73.98
70300;HTU21D;57704;51.112;5.878;2023-08-20T00:30:07;22.21;74.03
70300;HTU21D;57704;51.112;5.878;2023-08-20T00:32:34;22.18;74.22
70300;HTU21D;57704;51.112;5.878;2023-08-20T00:35:00;22.16;74.28
70300;HTU21D;57704;51.112;5.878;2023-08-20T00:37:26;22.14;74.32
70300;HTU21D;57704;51.112;5.878;2023-08-20T00:39:52;22.16;74.41
70300;HTU21D;57704;51.112;5.878;2023-08-20T00:42:19;22.17;74.41
70300;HTU21D;57704;51.112;5.878;2023-08-20T00:44:45;22.16;74.45
70300;HTU21D;57704;51.112;5.878;2023-08-20T00:47:12;22.16;74.47
70300;HTU21D;57704;51.112;5.878;2023-08-20T00:49:40;22.14;74.47
70300;HTU21D;57704;51.112;5.878;2023-08-20T00:52:08;22.14;74.45
70300;HTU21D;57704;51.112;5.878;2023-08-20T00:54:35;22.14;74.42
70300;HTU21D;57704;51.112;5.878;2023-08-20T00:57:02;22.14;74.34
70300;HTU21D;57704;51.112;5.878;2023-08-20T00:59:32;22.10;74.41
70300;HTU21D;57704;51.112;5.878;2023-08-20T01:01:58;22.10;74.44
70300;HTU21D;57704;51.112;5.878;2023-08-20T01:04:24;22.08;74.47
70300;HTU21D;57704;51.112;5.878;2023-08-20T01:12:26;22.03;74.63
70300;HTU21D;57704;51.112;5.878;2023-08-20T01:14:51;22.04;74.60
70300;HTU21D;57704;51.112;5.878;2023-08-20T01:17:18;22.02;74.65
70300;HTU21D;57704;51.112;5.878;2023-08-20T01:19:43;21.99;74.70
70300;HTU21D;57704;51.112;5.878;2023-08-20T01:30:43;21.91;74.80
70300;HTU21D;57704;51.112;5.878;2023-08-20T01:33:11;21.88;74.87
70300;HTU21D;57704;51.112;5.878;2023-08-20T01:35:38;21.84;74.90
70300;HTU21D;57704;51.112;5.878;2023-08-20T01:38:14;21.83;74.92
70300;HTU21D;57704;51.112;5.878;2023-08-20T01:40:40;21.83;74.83
70300;HTU21D;57704;51.112;5.878;2023-08-20T01:43:05;21.80;74.92
70300;HTU21D;57704;51.112;5.878;2023-08-20T01:45:31;21.81;74.97
70300;HTU21D;57704;51.112;5.878;2023-08-20T01:47:57;21.84;74.89
70300;HTU21D;57704;51.112;5.878;2023-08-20T01:50:23;21.88;74.89
70300;HTU21D;57704;51.112;5.878;2023-08-20T01:52:49;21.88;74.86
70300;HTU21D;57704;51.112;5.878;2023-08-20T01:55:14;21.90;74.89
70300;HTU21D;57704;51.112;5.878;2023-08-20T01:57:40;21.92;74.82
70300;HTU21D;57704;51.112;5.878;2023-08-20T02:00:06;21.92;74.83
70300;HTU21D;57704;51.112;5.878;2023-08-20T02:02:40;21.89;74.86
70300;HTU21D;57704;51.112;5.878;2023-08-20T02:05:06;21.87;74.80
70300;HTU21D;57704;51.112;5.878;2023-08-20T02:07:32;21.84;74.76
70300;HTU21D;57704;51.112;5.878;2023-08-20T02:09:59;21.82;74.78
70300;HTU21D;57704;51.112;5.878;2023-08-20T02:12:25;21.80;74.72
70300;HTU21D;57704;51.112;5.878;2023-08-20T02:14:52;21.77;74.74
70300;HTU21D;57704;51.112;5.878;2023-08-20T02:17:21;21.72;74.79
70300;HTU21D;57704;51.112;5.878;2023-08-20T02:19:47;21.66;74.81
70300;HTU21D;57704;51.112;5.878;2023-08-20T02:22:13;21.61;74.89
70300;HTU21D;57704;51.112;5.878;2023-08-20T02:24:39;21.60;74.84
70300;HTU21D;57704;51.112;5.878;2023-08-20T02:27:05;21.60;74.75
70300;HTU21D;57704;51.112;5.878;2023-08-20T02:29:31;21.59;74.77
70300;HTU21D;57704;51.112;5.878;2023-08-20T02:31:56;21.57;74.76
70300;HTU21D;57704;51.112;5.878;2023-08-20T02:34:22;21.51;74.79
70300;HTU21D;57704;51.112;5.878;2023-08-20T02:36:48;21.50;74.77
70300;HTU21D;57704;51.112;5.878;2023-08-20T02:39:14;21.48;74.71
70300;HTU21D;57704;51.112;5.878;2023-08-20T02:41:41;21.46;74.83
70300;HTU21D;57704;51.112;5.878;2023-08-20T02:44:09;21.42;74.82
70300;HTU21D;57704;51.112;5.878;2023-08-20T02:46:34;21.42;74.79
70300;HTU21D;57704;51.112;5.878;2023-08-20T02:49:00;21.40;74.76
70300;HTU21D;57704;51.112;5.878;2023-08-20T02:51:27;21.39;74.80
70300;HTU21D;57704;51.112;5.878;2023-08-20T02:53:53;21.37;74.76
70300;HTU21D;57704;51.112;5.878;2023-08-20T02:56:19;21.33;74.87
70300;HTU21D;57704;51.112;5.878;2023-08-20T02:58:45;21.30;74.94
70300;HTU21D;57704;51.112;5.878;2023-08-20T03:01:22;21.32;74.94
70300;HTU21D;57704;51.112;5.878;2023-08-20T03:03:49;21.31;74.85
70300;HTU21D;57704;51.112;5.878;2023-08-20T03:06:15;21.29;74.85
70300;HTU21D;57704;51.112;5.878;2023-08-20T03:08:40;21.28;74.94
70300;HTU21D;57704;51.112;5.878;2023-08-20T03:11:06;21.24;74.96
70300;HTU21D;57704;51.112;5.878;2023-08-20T03:13:32;21.21;74.96
70300;HTU21D;57704;51.112;5.878;2023-08-20T03:15:58;21.18;74.93
70300;HTU21D;57704;51.112;5.878;2023-08-20T03:18:24;21.08;75.13
70300;HTU21D;57704;51.112;5.878;2023-08-20T03:20:50;21.02;75.41
70300;HTU21D;57704;51.112;5.878;2023-08-20T03:23:16;21.02;75.45
70300;HTU21D;57704;51.112;5.878;2023-08-20T03:25:42;21.03;75.41
70300;HTU21D;57704;51.112;5.878;2023-08-20T03:28:07;21.03;75.28
70300;HTU21D;57704;51.112;5.878;2023-08-20T03:30:36;21.06;75.17
70300;HTU21D;57704;51.112;5.878;2023-08-20T03:33:02;21.06;74.95
70300;HTU21D;57704;51.112;5.878;2023-08-20T03:35:30;21.04;74.97
70300;HTU21D;57704;51.112;5.878;2023-08-20T03:37:56;21.02;75.05
70300;HTU21D;57704;51.112;5.878;2023-08-20T03:40:22;21.01;75.04
70300;HTU21D;57704;51.112;5.878;2023-08-20T03:42:47;21.03;74.93
70300;HTU21D;57704;51.112;5.878;2023-08-20T03:45:16;21.02;74.86
70300;HTU21D;57704;51.112;5.878;2023-08-20T03:47:42;21.00;74.69
70300;HTU21D;57704;51.112;5.878;2023-08-20T03:50:10;20.98;74.73
70300;HTU21D;57704;51.112;5.878;2023-08-20T03:52:36;20.96;74.68
70300;HTU21D;57704;51.112;5.878;2023-08-20T03:55:02;20.96;74.64
70300;HTU21D;57704;51.112;5.878;2023-08-20T03:57:28;20.98;74.54
70300;HTU21D;57704;51.112;5.878;2023-08-20T03:59:54;20.98;74.51
70300;HTU21D;57704;51.112;5.878;2023-08-20T04:02:20;20.95;74.50
70300;HTU21D;57704;51.112;5.878;2023-08-20T04:04:46;20.93;74.39
70300;HTU21D;57704;51.112;5.878;2023-08-20T04:07:12;20.91;74.43
70300;HTU21D;57704;51.112;5.878;2023-08-20T04:09:38;20.87;74.51
70300;HTU21D;57704;51.112;5.878;2023-08-20T04:12:06;20.85;74.66
70300;HTU21D;57704;51.112;5.878;2023-08-20T04:14:32;20.83;74.69
70300;HTU21D;57704;51.112;5.878;2023-08-20T04:16:58;20.83;74.64
70300;HTU21D;57704;51.112;5.878;2023-08-20T04:19:23;20.84;74.53
70300;HTU21D;57704;51.112;5.878;2023-08-20T04:21:49;20.81;74.47
70300;HTU21D;57704;51.112;5.878;2023-08-20T04:24:16;20.80;74.44
70300;HTU21D;57704;51.112;5.878;2023-08-20T04:26:43;20.78;74.46
70300;HTU21D;57704;51.112;5.878;2023-08-20T04:29:09;20.79;74.41
70300;HTU21D;57704;51.112;5.878;2023-08-20T04:31:35;20.75;74.34
70300;HTU21D;57704;51.112;5.878;2023-08-20T04:34:06;20.75;74.34
70300;HTU21D;57704;51.112;5.878;2023-08-20T04:36:47;20.73;74.38
70300;HTU21D;57704;51.112;5.878;2023-08-20T04:39:13;20.64;74.70
70300;HTU21D;57704;51.112;5.878;2023-08-20T04:41:44;20.62;74.84
70300;HTU21D;57704;51.112;5.878;2023-08-20T04:44:14;20.63;74.83
70300;HTU21D;57704;51.112;5.878;2023-08-20T04:46:42;20.68;74.71
70300;HTU21D;57704;51.112;5.878;2023-08-20T04:49:09;20.70;74.57
70300;HTU21D;57704;51.112;5.878;2023-08-20T04:51:34;20.71;74.60
70300;HTU21D;57704;51.112;5.878;2023-08-20T04:54:01;20.74;74.62
70300;HTU21D;57704;51.112;5.878;2023-08-20T04:56:27;20.75;74.55
70300;HTU21D;57704;51.112;5.878;2023-08-20T04:58:54;20.74;74.64
70300;HTU21D;57704;51.112;5.878;2023-08-20T05:01:40;20.77;74.57
70300;HTU21D;57704;51.112;5.878;2023-08-20T05:04:05;20.80;74.64
70300;HTU21D;57704;51.112;5.878;2023-08-20T05:06:31;20.83;74.56
70300;HTU21D;57704;51.112;5.878;2023-08-20T05:08:57;20.85;74.54
70300;HTU21D;57704;51.112;5.878;2023-08-20T05:11:23;20.88;74.47
70300;HTU21D;57704;51.112;5.878;2023-08-20T05:13:49;20.90;74.57
70300;HTU21D;57704;51.112;5.878;2023-08-20T05:16:16;20.94;74.51
70300;HTU21D;57704;51.112;5.878;2023-08-20T05:18:42;21.00;74.45
70300;HTU21D;57704;51.112;5.878;2023-08-20T05:21:08;21.05;74.43
70300;HTU21D;57704;51.112;5.878;2023-08-20T05:23:37;21.06;74.47
70300;HTU21D;57704;51.112;5.878;2023-08-20T05:26:02;21.06;74.62
70300;HTU21D;57704;51.112;5.878;2023-08-20T05:28:28;21.08;74.63
70300;HTU21D;57704;51.112;5.878;2023-08-20T05:30:58;21.16;74.55
70300;HTU21D;57704;51.112;5.878;2023-08-20T05:33:25;21.20;74.47
70300;HTU21D;57704;51.112;5.878;2023-08-20T05:35:52;21.22;74.45
70300;HTU21D;57704;51.112;5.878;2023-08-20T05:38:18;21.23;74.63
70300;HTU21D;57704;51.112;5.878;2023-08-20T05:40:45;21.24;74.73
70300;HTU21D;57704;51.112;5.878;2023-08-20T05:43:11;21.28;74.89
70300;HTU21D;57704;51.112;5.878;2023-08-20T05:45:39;21.32;74.89
70300;HTU21D;57704;51.112;5.878;2023-08-20T05:48:05;21.34;74.86
70300;HTU21D;57704;51.112;5.878;2023-08-20T05:50:31;21.37;74.85
70300;HTU21D;57704;51.112;5.878;2023-08-20T05:52:57;21.42;74.88
70300;HTU21D;57704;51.112;5.878;2023-08-20T05:55:24;21.49;74.86
70300;HTU21D;57704;51.112;5.878;2023-08-20T05:57:50;21.57;74.87
70300;HTU21D;57704;51.112;5.878;2023-08-20T06:00:16;21.72;75.00
70300;HTU21D;57704;51.112;5.878;2023-08-20T06:02:46;21.87;74.63
70300;HTU21D;57704;51.112;5.878;2023-08-20T06:05:12;22.04;74.37
70300;HTU21D;57704;51.112;5.878;2023-08-20T06:07:39;22.19;74.02
70300;HTU21D;57704;51.112;5.878;2023-08-20T06:10:06;22.33;73.57
70300;HTU21D;57704;51.112;5.878;2023-08-20T06:12:32;22.44;73.44
70300;HTU21D;57704;51.112;5.878;2023-08-20T06:14:58;22.52;73.25
70300;HTU21D;57704;51.112;5.878;2023-08-20T06:17:24;22.56;73.32
70300;HTU21D;57704;51.112;5.878;2023-08-20T06:19:49;22.67;73.11
70300;HTU21D;57704;51.112;5.878;2023-08-20T06:22:15;22.81;72.83
70300;HTU21D;57704;51.112;5.878;2023-08-20T06:24:41;22.87;72.32
70300;HTU21D;57704;51.112;5.878;2023-08-20T06:27:07;22.92;72.28
70300;HTU21D;57704;51.112;5.878;2023-08-20T06:29:32;22.96;72.36
70300;HTU21D;57704;51.112;5.878;2023-08-20T06:31:58;23.03;72.30
70300;HTU21D;57704;51.112;5.878;2023-08-20T06:34:24;23.14;72.29
70300;HTU21D;57704;51.112;5.878;2023-08-20T06:36:49;23.27;72.14
70300;HTU21D;57704;51.112;5.878;2023-08-20T06:39:15;23.38;71.76
70300;HTU21D;57704;51.112;5.878;2023-08-20T06:41:41;23.49;71.19
70300;HTU21D;57704;51.112;5.878;2023-08-20T06:44:18;23.42;71.37
70300;HTU21D;57704;51.112;5.878;2023-08-20T06:46:44;23.44;71.45
70300;HTU21D;57704;51.112;5.878;2023-08-20T06:49:10;23.54;71.17
70300;HTU21D;57704;51.112;5.878;2023-08-20T06:51:35;23.61;70.90
70300;HTU21D;57704;51.112;5.878;2023-08-20T06:54:02;23.69;70.97
70300;HTU21D;57704;51.112;5.878;2023-08-20T06:56:28;23.83;70.70
70300;HTU21D;57704;51.112;5.878;2023-08-20T06:58:54;23.99;70.18
70300;HTU21D;57704;51.112;5.878;2023-08-20T07:01:20;24.00;69.83
70300;HTU21D;57704;51.112;5.878;2023-08-20T07:03:45;24.15;70.20
70300;HTU21D;57704;51.112;5.878;2023-08-20T07:06:11;24.42;69.65
70300;HTU21D;57704;51.112;5.878;2023-08-20T07:08:40;24.70;69.25
70300;HTU21D;57704;51.112;5.878;2023-08-20T07:11:06;24.97;68.78
70300;HTU21D;57704;51.112;5.878;2023-08-20T07:13:32;25.23;68.97
70300;HTU21D;57704;51.112;5.878;2023-08-20T07:15:58;25.51;68.92
70300;HTU21D;57704;51.112;5.878;2023-08-20T07:18:24;25.89;68.78
70300;HTU21D;57704;51.112;5.878;2023-08-20T07:20:50;26.28;68.62
70300;HTU21D;57704;51.112;5.878;2023-08-20T07:23:17;26.61;67.94
70300;HTU21D;57704;51.112;5.878;2023-08-20T07:25:43;26.80;67.52
70300;HTU21D;57704;51.112;5.878;2023-08-20T07:28:10;26.87;66.49
70300;HTU21D;57704;51.112;5.878;2023-08-20T07:30:37;27.23;66.33
70300;HTU21D;57704;51.112;5.878;2023-08-20T07:33:03;27.76;65.13
70300;HTU21D;57704;51.112;5.878;2023-08-20T07:35:29;28.48;62.68
70300;HTU21D;57704;51.112;5.878;2023-08-20T07:37:55;29.11;60.93
70300;HTU21D;57704;51.112;5.878;2023-08-20T07:40:21;29.77;58.49
70300;HTU21D;57704;51.112;5.878;2023-08-20T07:42:46;30.41;57.06
70300;HTU21D;57704;51.112;5.878;2023-08-20T07:45:12;31.25;55.03
70300;HTU21D;57704;51.112;5.878;2023-08-20T07:47:39;32.01;52.67
70300;HTU21D;57704;51.112;5.878;2023-08-20T07:50:05;32.58;50.62
70300;HTU21D;57704;51.112;5.878;2023-08-20T07:52:32;32.93;50.02
70300;HTU21D;57704;51.112;5.878;2023-08-20T07:54:58;33.41;49.29
70300;HTU21D;57704;51.112;5.878;2023-08-20T07:57:24;33.83;47.66
70300;HTU21D;57704;51.112;5.878;2023-08-20T07:59:50;34.00;47.28
70300;HTU21D;57704;51.112;5.878;2023-08-20T08:02:16;34.16;47.27
70300;HTU21D;57704;51.112;5.878;2023-08-20T08:04:43;34.14;46.06
70300;HTU21D;57704;51.112;5.878;2023-08-20T08:07:09;33.91;46.35
70300;HTU21D;57704;51.112;5.878;2023-08-20T08:09:36;33.80;46.92
70300;HTU21D;57704;51.112;5.878;2023-08-20T08:12:02;33.73;47.06
70300;HTU21D;57704;51.112;5.878;2023-08-20T08:14:28;33.58;47.25
70300;HTU21D;57704;51.112;5.878;2023-08-20T08:16:54;33.43;47.77
70300;HTU21D;57704;51.112;5.878;2023-08-20T08:19:20;33.36;46.95
70300;HTU21D;57704;51.112;5.878;2023-08-20T08:21:47;33.26;47.38
70300;HTU21D;57704;51.112;5.878;2023-08-20T08:24:14;33.32;47.64
70300;HTU21D;57704;51.112;5.878;2023-08-20T08:26:41;33.15;47.53
70300;HTU21D;57704;51.112;5.878;2023-08-20T08:29:08;33.18;47.54
70300;HTU21D;57704;51.112;5.878;2023-08-20T08:31:34;33.40;47.41
70300;HTU21D;57704;51.112;5.878;2023-08-20T08:34:01;33.68;47.10
70300;HTU21D;57704;51.112;5.878;2023-08-20T08:36:28;34.06;46.27
70300;HTU21D;57704;51.112;5.878;2023-08-20T08:38:54;34.48;45.91
70300;HTU21D;57704;51.112;5.878;2023-08-20T08:41:26;34.66;44.88
70300;HTU21D;57704;51.112;5.878;2023-08-20T08:43:55;34.64;44.72
70300;HTU21D;57704;51.112;5.878;2023-08-20T08:46:23;34.71;44.90
70300;HTU21D;57704;51.112;5.878;2023-08-20T08:48:51;34.84;44.88
70300;HTU21D;57704;51.112;5.878;2023-08-20T08:51:18;34.83;44.51
70300;HTU21D;57704;51.112;5.878;2023-08-20T08:53:44;34.93;44.16
70300;HTU21D;57704;51.112;5.878;2023-08-20T08:56:10;34.99;44.33
70300;HTU21D;57704;51.112;5.878;2023-08-20T08:58:36;35.05;44.04
70300;HTU21D;57704;51.112;5.878;2023-08-20T09:01:02;35.08;43.95
70300;HTU21D;57704;51.112;5.878;2023-08-20T09:03:28;35.24;43.39
70300;HTU21D;57704;51.112;5.878;2023-08-20T09:05:57;35.24;43.48
70300;HTU21D;57704;51.112;5.878;2023-08-20T09:08:31;35.16;43.48
70300;HTU21D;57704;51.112;5.878;2023-08-20T09:10:59;35.25;43.27
70300;HTU21D;57704;51.112;5.878;2023-08-20T09:13:36;35.14;43.52
70300;HTU21D;57704;51.112;5.878;2023-08-20T09:16:20;35.29;43.17
70300;HTU21D;57704;51.112;5.878;2023-08-20T09:18:46;35.29;42.68
70300;HTU21D;57704;51.112;5.878;2023-08-20T09:21:13;35.33;42.47
70300;HTU21D;57704;51.112;5.878;2023-08-20T09:23:39;35.31;42.35
70300;HTU21D;57704;51.112;5.878;2023-08-20T09:26:06;35.36;42.21
70300;HTU21D;57704;51.112;5.878;2023-08-20T09:28:46;35.41;42.03
70300;HTU21D;57704;51.112;5.878;2023-08-20T09:31:13;35.64;41.68
70300;HTU21D;57704;51.112;5.878;2023-08-20T09:33:52;35.69;41.38
70300;HTU21D;57704;51.112;5.878;2023-08-20T09:36:29;35.79;41.29
70300;HTU21D;57704;51.112;5.878;2023-08-20T09:38:55;35.92;40.78
70300;HTU21D;57704;51.112;5.878;2023-08-20T09:41:23;35.95;40.70
70300;HTU21D;57704;51.112;5.878;2023-08-20T09:43:56;35.95;40.43
70300;HTU21D;57704;51.112;5.878;2023-08-20T09:46:24;35.94;40.74
70300;HTU21D;57704;51.112;5.878;2023-08-20T09:48:51;35.99;40.30
70300;HTU21D;57704;51.112;5.878;2023-08-20T09:51:24;36.00;39.25
70300;HTU21D;57704;51.112;5.878;2023-08-20T09:54:12;35.74;40.49
70300;HTU21D;57704;51.112;5.878;2023-08-20T09:56:39;35.37;40.75
70300;HTU21D;57704;51.112;5.878;2023-08-20T09:59:06;35.23;41.24
70300;HTU21D;57704;51.112;5.878;2023-08-20T10:01:35;35.18;41.29
70300;HTU21D;57704;51.112;5.878;2023-08-20T10:04:02;35.26;41.07
70300;HTU21D;57704;51.112;5.878;2023-08-20T10:06:28;35.36;40.26
70300;HTU21D;57704;51.112;5.878;2023-08-20T10:08:55;35.35;41.07
70300;HTU21D;57704;51.112;5.878;2023-08-20T10:11:21;35.52;40.46
70300;HTU21D;57704;51.112;5.878;2023-08-20T10:13:47;35.28;40.64
70300;HTU21D;57704;51.112;5.878;2023-08-20T10:16:13;35.28;40.72
70300;HTU21D;57704;51.112;5.878;2023-08-20T10:18:39;35.24;40.73
70300;HTU21D;57704;51.112;5.878;2023-08-20T10:21:05;35.27;40.73
70300;HTU21D;57704;51.112;5.878;2023-08-20T10:23:40;35.38;40.56
70300;HTU21D;57704;51.112;5.878;2023-08-20T10:26:10;35.51;40.55
70300;HTU21D;57704;51.112;5.878;2023-08-20T10:28:37;35.65;39.81
70300;HTU21D;57704;51.112;5.878;2023-08-20T10:31:05;35.56;39.57
70300;HTU21D;57704;51.112;5.878;2023-08-20T10:33:36;35.47;39.90
70300;HTU21D;57704;51.112;5.878;2023-08-20T10:36:17;35.62;39.80
70300;HTU21D;57704;51.112;5.878;2023-08-20T10:38:47;35.78;39.55
70300;HTU21D;57704;51.112;5.878;2023-08-20T10:41:13;35.87;39.07
70300;HTU21D;57704;51.112;5.878;2023-08-20T10:43:49;36.01;38.75
70300;HTU21D;57704;51.112;5.878;2023-08-20T10:46:21;36.03;38.75
70300;HTU21D;57704;51.112;5.878;2023-08-20T10:51:18;36.03;39.07
70300;HTU21D;57704;51.112;5.878;2023-08-20T10:54:06;36.19;38.09
70300;HTU21D;57704;51.112;5.878;2023-08-20T10:59:15;36.27;38.31
70300;HTU21D;57704;51.112;5.878;2023-08-20T11:01:53;36.54;37.49
70300;HTU21D;57704;51.112;5.878;2023-08-20T11:04:22;36.49;36.96
70300;HTU21D;57704;51.112;5.878;2023-08-20T11:06:57;36.17;37.45
70300;HTU21D;57704;51.112;5.878;2023-08-20T11:09:25;36.10;37.22
70300;HTU21D;57704;51.112;5.878;2023-08-20T11:11:52;36.18;37.07
70300;HTU21D;57704;51.112;5.878;2023-08-20T11:14:19;36.42;36.86
70300;HTU21D;57704;51.112;5.878;2023-08-20T11:16:47;36.49;36.07
70300;HTU21D;57704;51.112;5.878;2023-08-20T11:19:15;36.58;36.37
70300;HTU21D;57704;51.112;5.878;2023-08-20T11:21:44;36.77;36.10
70300;HTU21D;57704;51.112;5.878;2023-08-20T11:24:11;36.87;35.86
70300;HTU21D;57704;51.112;5.878;2023-08-20T11:26:41;36.92;35.50
70300;HTU21D;57704;51.112;5.878;2023-08-20T11:29:12;37.17;34.96
70300;HTU21D;57704;51.112;5.878;2023-08-20T11:31:39;37.33;33.87
70300;HTU21D;57704;51.112;5.878;2023-08-20T11:34:06;37.77;33.34
70300;HTU21D;57704;51.112;5.878;2023-08-20T11:36:33;38.25;32.41
70300;HTU21D;57704;51.112;5.878;2023-08-20T11:39:01;38.71;31.94
70300;HTU21D;57704;51.112;5.878;2023-08-20T11:41:26;38.90;30.58
70300;HTU21D;57704;51.112;5.878;2023-08-20T11:43:53;39.22;30.76
70300;HTU21D;57704;51.112;5.878;2023-08-20T11:46:21;39.54;29.93
70300;HTU21D;57704;51.112;5.878;2023-08-20T11:49:04;40.18;29.12
70300;HTU21D;57704;51.112;5.878;2023-08-20T11:51:35;40.50;28.72
70300;HTU21D;57704;51.112;5.878;2023-08-20T11:54:04;40.55;28.14
70300;HTU21D;57704;51.112;5.878;2023-08-20T11:56:30;40.43;28.36
70300;HTU21D;57704;51.112;5.878;2023-08-20T11:59:01;40.95;28.28
70300;HTU21D;57704;51.112;5.878;2023-08-20T12:01:33;41.01;27.71
70300;HTU21D;57704;51.112;5.878;2023-08-20T12:04:03;40.90;27.21
70300;HTU21D;57704;51.112;5.878;2023-08-20T12:06:30;41.11;26.88
70300;HTU21D;57704;51.112;5.878;2023-08-20T12:08:57;41.31;26.60
70300;HTU21D;57704;51.112;5.878;2023-08-20T12:11:27;41.64;26.68
70300;HTU21D;57704;51.112;5.878;2023-08-20T12:13:54;41.87;26.20
70300;HTU21D;57704;51.112;5.878;2023-08-20T12:16:23;41.64;25.92
70300;HTU21D;57704;51.112;5.878;2023-08-20T12:18:50;41.78;26.24
70300;HTU21D;57704;51.112;5.878;2023-08-20T12:21:16;41.63;26.18
70300;HTU21D;57704;51.112;5.878;2023-08-20T12:23:42;41.10;26.06
70300;HTU21D;57704;51.112;5.878;2023-08-20T12:26:08;40.77;27.00
70300;HTU21D;57704;51.112;5.878;2023-08-20T12:28:34;40.87;26.23
70300;HTU21D;57704;51.112;5.878;2023-08-20T12:31:00;40.80;25.97
70300;HTU21D;57704;51.112;5.878;2023-08-20T12:33:26;39.84;26.65
70300;HTU21D;57704;51.112;5.878;2023-08-20T12:35:55;39.62;27.27
70300;HTU21D;57704;51.112;5.878;2023-08-20T12:38:21;40.07;27.04
70300;HTU21D;57704;51.112;5.878;2023-08-20T12:40:47;40.45;26.59
70300;HTU21D;57704;51.112;5.878;2023-08-20T12:43:13;40.48;26.17
70300;HTU21D;57704;51.112;5.878;2023-08-20T12:45:39;40.26;26.73
70300;HTU21D;57704;51.112;5.878;2023-08-20T12:48:05;40.08;27.12
70300;HTU21D;57704;51.112;5.878;2023-08-20T12:50:33;40.25;26.97
70300;HTU21D;57704;51.112;5.878;2023-08-20T12:52:59;40.40;26.69
70300;HTU21D;57704;51.112;5.878;2023-08-20T12:55:25;40.41;26.60
70300;HTU21D;57704;51.112;5.878;2023-08-20T12:57:56;40.18;26.74
70300;HTU21D;57704;51.112;5.878;2023-08-20T13:00:23;39.87;27.16
70300;HTU21D;57704;51.112;5.878;2023-08-20T13:02:51;39.74;27.23
70300;HTU21D;57704;51.112;5.878;2023-08-20T13:05:17;39.67;27.24
70300;HTU21D;57704;51.112;5.878;2023-08-20T13:07:43;39.68;27.34
70300;HTU21D;57704;51.112;5.878;2023-08-20T13:10:09;39.61;27.30
70300;HTU21D;57704;51.112;5.878;2023-08-20T13:12:36;39.55;27.38
70300;HTU21D;57704;51.112;5.878;2023-08-20T13:15:03;39.59;26.89
70300;HTU21D;57704;51.112;5.878;2023-08-20T13:17:30;39.42;27.31
70300;HTU21D;57704;51.112;5.878;2023-08-20T13:19:55;39.32;27.33
70300;HTU21D;57704;51.112;5.878;2023-08-20T13:22:22;39.14;27.60
70300;HTU21D;57704;51.112;5.878;2023-08-20T13:24:48;39.05;27.60
70300;HTU21D;57704;51.112;5.878;2023-08-20T13:27:13;38.97;27.78
70300;HTU21D;57704;51.112;5.878;2023-08-20T13:29:42;39.05;27.80
70300;HTU21D;57704;51.112;5.878;2023-08-20T13:32:08;38.79;27.66
70300;HTU21D;57704;51.112;5.878;2023-08-20T13:34:34;38.31;28.41
70300;HTU21D;57704;51.112;5.878;2023-08-20T13:36:59;38.10;28.84
70300;HTU21D;57704;51.112;5.878;2023-08-20T13:39:25;37.87;29.14
70300;HTU21D;57704;51.112;5.878;2023-08-20T13:41:51;37.76;28.88
70300;HTU21D;57704;51.112;5.878;2023-08-20T13:44:17;37.64;29.01
70300;HTU21D;57704;51.112;5.878;2023-08-20T13:46:43;37.61;29.21
70300;HTU21D;57704;51.112;5.878;2023-08-20T13:49:09;37.43;29.25
70300;HTU21D;57704;51.112;5.878;2023-08-20T13:51:35;37.33;29.35
70300;HTU21D;57704;51.112;5.878;2023-08-20T13:54:01;37.44;29.35
70300;HTU21D;57704;51.112;5.878;2023-08-20T13:56:26;37.50;29.39
70300;HTU21D;57704;51.112;5.878;2023-08-20T13:58:53;37.47;29.58
70300;HTU21D;57704;51.112;5.878;2023-08-20T14:01:19;37.60;29.37
70300;HTU21D;57704;51.112;5.878;2023-08-20T14:03:45;37.63;29.24
70300;HTU21D;57704;51.112;5.878;2023-08-20T14:06:10;37.37;29.23
70300;HTU21D;57704;51.112;5.878;2023-08-20T14:08:36;37.00;29.16
70300;HTU21D;57704;51.112;5.878;2023-08-20T14:11:02;36.58;30.16
70300;HTU21D;57704;51.112;5.878;2023-08-20T14:13:28;36.42;30.69
70300;HTU21D;57704;51.112;5.878;2023-08-20T14:15:54;36.40;30.76
70300;HTU21D;57704;51.112;5.878;2023-08-20T14:18:20;36.48;30.36
70300;HTU21D;57704;51.112;5.878;2023-08-20T14:20:46;36.58;30.29
70300;HTU21D;57704;51.112;5.878;2023-08-20T14:23:12;36.71;30.45
70300;HTU21D;57704;51.112;5.878;2023-08-20T14:25:38;36.64;30.11
70300;HTU21D;57704;51.112;5.878;2023-08-20T14:28:07;36.36;30.83
70300;HTU21D;57704;51.112;5.878;2023-08-20T14:30:39;36.42;31.06
70300;HTU21D;57704;51.112;5.878;2023-08-20T14:33:06;36.29;31.03
70300;HTU21D;57704;51.112;5.878;2023-08-20T14:35:32;36.08;31.48
70300;HTU21D;57704;51.112;5.878;2023-08-20T14:37:58;35.96;31.48
70300;HTU21D;57704;51.112;5.878;2023-08-20T14:40:24;35.87;31.64
70300;HTU21D;57704;51.112;5.878;2023-08-20T14:42:50;35.70;31.88
70300;HTU21D;57704;51.112;5.878;2023-08-20T14:45:16;35.63;32.25
70300;HTU21D;57704;51.112;5.878;2023-08-20T14:47:42;35.62;32.02
70300;HTU21D;57704;51.112;5.878;2023-08-20T14:50:08;35.65;32.29
70300;HTU21D;57704;51.112;5.878;2023-08-20T14:52:34;35.74;32.07
70300;HTU21D;57704;51.112;5.878;2023-08-20T14:55:00;35.74;31.97
70300;HTU21D;57704;51.112;5.878;2023-08-20T14:57:27;35.73;32.18
70300;HTU21D;57704;51.112;5.878;2023-08-20T14:59:52;35.79;32.31
70300;HTU21D;57704;51.112;5.878;2023-08-20T15:02:18;35.82;32.21
70300;HTU21D;57704;51.112;5.878;2023-08-20T15:04:44;35.78;32.18
70300;HTU21D;57704;51.112;5.878;2023-08-20T15:07:10;35.78;31.93
70300;HTU21D;57704;51.112;5.878;2023-08-20T15:09:36;35.67;32.37
70300;HTU21D;57704;51.112;5.878;2023-08-20T15:12:02;35.65;32.28
70300;HTU21D;57704;51.112;5.878;2023-08-20T15:14:28;35.62;32.15
70300;HTU21D;57704;51.112;5.878;2023-08-20T15:16:54;35.49;32.51
70300;HTU21D;57704;51.112;5.878;2023-08-20T15:19:20;35.36;32.47
70300;HTU21D;57704;51.112;5.878;2023-08-20T15:21:46;35.14;32.57
70300;HTU21D;57704;51.112;5.878;2023-08-20T15:24:12;34.83;32.72
70300;HTU21D;57704;51.112;5.878;2023-08-20T15:26:38;34.66;33.51
70300;HTU21D;57704;51.112;5.878;2023-08-20T15:29:04;34.65;33.52
70300;HTU21D;57704;51.112;5.878;2023-08-20T15:31:30;34.65;33.50
70300;HTU21D;57704;51.112;5.878;2023-08-20T15:33:56;34.70;33.38